Time;durP1;ratioP1;P1;durP2;ratioP2;P2;SDS_P1;SDS_P2;PMS_P1;PMS_P2;Temp;Humidity;BMP_temperature;BMP_pressure;BME280_temperature;BME280_humidity;BME280_pressure;Samples;Min_cycle;Max_cycle;Signal;HPM_P1;HPM_P2
2022/05/03 00:00:53;;;;;;;3.97;2.95;;;6.50;99.90;;;;;;5114066;28;20039;-74
2022/05/03 00:03:24;;;;;;;4.95;3.30;;;6.50;99.90;;;;;;5114878;28;20048;-75
2022/05/03 00:06:07;;;;;;;5.90;3.38;;;6.40;99.90;;;;;;5114883;28;20483;-74
2022/05/03 00:08:52;;;;;;;6.00;3.20;;;6.40;99.90;;;;;;5114659;28;20044;-75
2022/05/03 00:11:35;;;;;;;7.05;3.85;;;6.40;99.90;;;;;;5114687;28;20047;-76
2022/05/03 00:14:09;;;;;;;5.28;3.28;;;6.30;99.90;;;;;;5114613;28;20091;-75
2022/05/03 00:16:37;;;;;;;5.82;3.28;;;6.30;99.90;;;;;;5114420;28;20051;-74
2022/05/03 00:19:07;;;;;;;5.45;3.38;;;6.20;99.90;;;;;;5114516;28;20055;-75
2022/05/03 00:21:37;;;;;;;6.25;3.28;;;6.20;99.90;;;;;;5113555;28;20101;-75
2022/05/03 00:24:04;;;;;;;5.78;3.45;;;6.10;99.90;;;;;;5114451;28;20066;-75
2022/05/03 00:26:30;;;;;;;4.40;3.25;;;6.10;99.90;;;;;;5114586;28;20040;-75
2022/05/03 00:28:57;;;;;;;6.30;3.42;;;6.10;99.90;;;;;;5114451;28;20039;-76
2022/05/03 00:31:24;;;;;;;5.63;3.50;;;6.10;99.90;;;;;;5114326;28;20051;-75
2022/05/03 00:33:51;;;;;;;4.97;3.42;;;6.00;99.90;;;;;;5114460;28;20050;-76
2022/05/03 00:36:16;;;;;;;5.35;3.50;;;6.00;99.90;;;;;;5114320;28;20043;-76
2022/05/03 00:38:42;;;;;;;7.20;3.70;;;5.90;99.90;;;;;;5114178;28;20044;-76
2022/05/03 00:41:10;;;;;;;7.82;3.55;;;5.90;99.90;;;;;;5114277;28;20047;-76
2022/05/03 00:43:51;;;;;;;7.38;3.83;;;5.90;99.90;;;;;;5113429;28;20118;-76
2022/05/03 00:46:21;;;;;;;6.57;3.15;;;5.90;99.90;;;;;;5113887;28;20083;-76
2022/05/03 00:49:02;;;;;;;5.35;3.20;;;5.80;99.90;;;;;;5114196;28;20488;-76
2022/05/03 00:51:52;;;;;;;5.32;3.47;;;5.80;99.90;;;;;;5114071;28;20092;-76
2022/05/03 00:54:36;;;;;;;5.70;3.70;;;5.80;99.90;;;;;;5114183;28;20040;-76
2022/05/03 00:57:12;;;;;;;6.85;3.47;;;5.70;99.90;;;;;;5114485;28;20044;-76
2022/05/03 00:59:44;;;;;;;5.60;3.35;;;5.70;99.90;;;;;;5114262;28;20047;-77
2022/05/03 01:02:13;;;;;;;7.15;3.42;;;5.60;99.90;;;;;;5114000;28;20130;-75
2022/05/03 01:04:42;;;;;;;7.05;3.53;;;5.60;99.90;;;;;;5114013;28;20048;-73
2022/05/03 01:07:28;;;;;;;8.43;3.60;;;5.50;99.90;;;;;;5113842;28;20125;-76
2022/05/03 01:10:17;;;;;;;7.75;3.55;;;5.50;99.90;;;;;;5114362;28;20044;-75
2022/05/03 01:13:07;;;;;;;7.45;3.63;;;5.50;99.90;;;;;;5113864;28;20051;-76
2022/05/03 01:15:37;;;;;;;6.32;3.55;;;5.50;99.90;;;;;;5113790;28;20104;-76
2022/05/03 01:18:21;;;;;;;8.02;3.80;;;5.40;99.90;;;;;;5114258;28;20089;-75
2022/05/03 01:21:14;;;;;;;7.55;3.35;;;5.50;99.90;;;;;;5113664;28;20514;-76
2022/05/03 01:23:39;;;;;;;5.38;3.50;;;5.40;99.90;;;;;;5113830;28;20082;-76
2022/05/03 01:26:42;;;;;;;6.45;3.65;;;5.40;99.90;;;;;;5113815;28;20454;-74
2022/05/03 01:29:33;;;;;;;5.90;3.85;;;5.40;99.90;;;;;;5114041;28;20428;-75
2022/05/03 01:32:07;;;;;;;6.35;3.78;;;5.40;99.90;;;;;;5113750;28;20055;-75
2022/05/03 01:34:34;;;;;;;5.10;3.40;;;5.30;99.90;;;;;;5118286;28;20049;-74
2022/05/03 01:37:00;;;;;;;5.30;3.53;;;5.30;99.90;;;;;;5117656;28;20050;-75
2022/05/03 01:39:56;;;;;;;7.90;3.95;;;5.30;99.90;;;;;;5117431;28;20127;-76
2022/05/03 01:43:06;;;;;;;6.88;3.65;;;5.30;99.90;;;;;;5117468;28;20083;-74
2022/05/03 01:45:36;;;;;;;7.22;3.60;;;5.20;99.90;;;;;;5117588;28;20058;-76
2022/05/03 01:50:18;;;;;;;5.82;3.80;;;5.20;99.90;;;;;;5117717;28;20058;-76
2022/05/03 01:51:29;;;;;;;6.30;3.83;;;5.10;99.90;;;;;;5117315;28;20047;-75
2022/05/03 01:54:12;;;;;;;5.90;3.70;;;5.10;99.90;;;;;;5117424;28;20047;-74
2022/05/03 01:56:57;;;;;;;4.70;3.40;;;5.10;99.90;;;;;;5117451;28;20043;-76
2022/05/03 01:59:54;;;;;;;6.28;3.83;;;5.00;99.90;;;;;;5117269;28;20032;-75
2022/05/03 02:03:11;;;;;;;6.43;3.75;;;5.00;99.90;;;;;;5117120;27;20043;-74
2022/05/03 02:05:58;;;;;;;5.70;3.58;;;4.90;99.90;;;;;;5054244;28;20055;-74
2022/05/03 02:08:29;;;;;;;8.18;4.30;;;4.90;99.90;;;;;;5054384;28;20151;-73
2022/05/03 02:11:16;;;;;;;7.53;3.80;;;4.80;99.90;;;;;;5086471;28;20138;-73
2022/05/03 02:16:57;;;;;;;5.78;3.42;;;4.80;99.90;;;;;;5116860;28;20051;-75
2022/05/03 02:20:00;;;;;;;7.03;4.10;;;4.70;99.90;;;;;;5117060;28;20093;-75
2022/05/03 02:22:50;;;;;;;6.07;3.88;;;4.70;99.90;;;;;;5116621;28;20066;-74
2022/05/03 02:25:54;;;;;;;5.57;4.25;;;4.70;99.90;;;;;;5116496;28;20495;-74
2022/05/03 02:28:33;;;;;;;6.35;4.10;;;4.60;99.90;;;;;;5116582;28;20051;-76
2022/05/03 02:31:04;;;;;;;6.43;4.20;;;4.70;99.90;;;;;;5116598;28;20039;-74
2022/05/03 02:33:37;;;;;;;7.60;3.90;;;4.60;99.90;;;;;;5116528;27;20044;-75
2022/05/03 02:36:06;;;;;;;7.38;4.45;;;4.60;99.90;;;;;;5116413;28;20044;-75
2022/05/03 02:38:46;;;;;;;8.05;4.50;;;4.60;99.90;;;;;;5116456;28;20039;-76
2022/05/03 02:41:12;;;;;;;8.82;4.63;;;4.60;99.90;;;;;;5116332;27;20169;-74
2022/05/03 02:43:38;;;;;;;7.27;4.50;;;4.60;99.90;;;;;;5115933;28;20058;-74
2022/05/03 02:46:35;;;;;;;8.10;5.32;;;4.60;99.90;;;;;;5115325;28;20047;-75
2022/05/03 02:49:07;;;;;;;6.32;4.25;;;4.50;99.90;;;;;;5115912;28;20479;-75
2022/05/03 02:52:06;;;;;;;8.32;5.03;;;4.40;99.90;;;;;;5116024;28;20075;-75
2022/05/03 02:54:35;;;;;;;9.02;4.70;;;4.40;99.90;;;;;;5116369;28;20050;-75
2022/05/03 02:57:30;;;;;;;7.55;4.78;;;4.50;99.90;;;;;;5115691;28;20479;-75
2022/05/03 03:03:23;;;;;;;6.88;4.15;;;4.40;99.90;;;;;;5116272;28;20059;-75
2022/05/03 03:05:55;;;;;;;7.60;4.85;;;4.40;99.90;;;;;;5115841;28;20060;-75
2022/05/03 03:08:23;;;;;;;8.02;4.93;;;4.30;99.90;;;;;;5115777;28;20044;-76
2022/05/03 03:10:57;;;;;;;6.93;4.78;;;4.40;99.90;;;;;;5115774;28;20052;-75
2022/05/03 03:13:47;;;;;;;7.55;4.28;;;4.30;99.90;;;;;;5115758;28;20055;-76
2022/05/03 03:16:14;;;;;;;7.90;5.05;;;4.30;99.90;;;;;;5115587;28;20474;-75
2022/05/03 03:18:43;;;;;;;9.45;4.90;;;4.30;99.90;;;;;;5115334;28;20543;-75
2022/05/03 03:21:12;;;;;;;7.57;4.50;;;4.20;99.90;;;;;;5115651;28;20043;-74
2022/05/03 03:23:40;;;;;;;6.65;4.70;;;4.30;99.90;;;;;;5115575;28;20047;-75
2022/05/03 03:26:09;;;;;;;8.15;5.03;;;4.20;99.90;;;;;;5115472;28;20051;-76
2022/05/03 03:28:36;;;;;;;8.63;4.20;;;4.20;99.90;;;;;;5114048;28;20040;-76
2022/05/03 03:31:03;;;;;;;8.32;4.82;;;4.20;99.90;;;;;;5115225;28;20051;-75
2022/05/03 03:33:34;;;;;;;7.10;4.78;;;4.10;99.90;;;;;;5115164;28;20046;-76
2022/05/03 03:36:03;;;;;;;7.20;4.68;;;4.10;99.90;;;;;;5115301;28;20547;-74
2022/05/03 03:38:49;;;;;;;8.73;5.10;;;4.10;99.90;;;;;;5115204;28;20040;-76
2022/05/03 03:41:15;;;;;;;7.03;4.68;;;4.10;99.90;;;;;;5115216;28;20519;-76
2022/05/03 03:43:40;;;;;;;7.25;4.32;;;4.00;99.90;;;;;;5115414;28;20089;-75
2022/05/03 03:46:07;;;;;;;8.07;5.10;;;4.00;99.90;;;;;;5115144;27;20047;-76
2022/05/03 03:48:33;;;;;;;9.38;5.15;;;4.00;99.90;;;;;;5114912;28;20497;-76
2022/05/03 03:51:00;;;;;;;9.40;5.07;;;4.00;99.90;;;;;;5115016;28;20093;-76
2022/05/03 03:53:27;;;;;;;10.60;5.80;;;4.00;99.90;;;;;;5114616;28;20044;-75
2022/05/03 03:55:53;;;;;;;7.47;5.00;;;4.00;99.90;;;;;;5114732;28;20044;-76
2022/05/03 03:58:19;;;;;;;9.80;5.43;;;4.00;99.90;;;;;;5114994;28;20047;-76
2022/05/03 04:00:47;;;;;;;9.50;4.87;;;3.90;99.90;;;;;;5114647;28;20047;-76
2022/05/03 04:03:13;;;;;;;8.48;5.45;;;3.90;99.90;;;;;;5114768;28;20065;-76
2022/05/03 04:05:39;;;;;;;8.68;5.03;;;4.00;99.90;;;;;;5114789;28;20047;-76
2022/05/03 04:08:05;;;;;;;10.15;5.05;;;4.00;99.90;;;;;;5114652;28;20536;-75
2022/05/03 04:10:31;;;;;;;9.30;4.90;;;3.90;99.90;;;;;;5114601;28;20047;-74
2022/05/03 04:12:57;;;;;;;8.77;5.00;;;3.90;99.90;;;;;;5114361;28;20060;-74
2022/05/03 04:15:24;;;;;;;8.82;5.88;;;3.90;99.90;;;;;;5114342;28;20496;-74
2022/05/03 04:17:50;;;;;;;;;;;3.90;99.90;;;;;;5114605;28;20526;-75
2022/05/03 04:20:16;;;;;;;8.15;5.38;;;3.90;99.90;;;;;;5114484;28;19919;-75
2022/05/03 04:22:41;;;;;;;10.73;7.05;;;3.90;99.90;;;;;;5114528;28;20082;-75
2022/05/03 04:25:08;;;;;;;11.05;6.22;;;3.90;99.90;;;;;;5114370;28;20516;-75
2022/05/03 04:27:33;;;;;;;11.25;5.85;;;3.90;99.90;;;;;;5114395;28;20105;-74
2022/05/03 04:30:00;;;;;;;14.25;5.90;;;3.90;99.90;;;;;;5114231;28;20075;-74
2022/05/03 04:32:31;;;;;;;9.80;6.05;;;3.90;99.90;;;;;;5114360;28;20040;-75
2022/05/03 04:34:57;;;;;;;9.65;6.35;;;4.00;99.90;;;;;;5114252;28;20070;-75
2022/05/03 04:37:23;;;;;;;11.97;6.30;;;4.00;99.90;;;;;;5114190;28;20084;-75
2022/05/03 04:39:49;;;;;;;12.75;6.32;;;4.10;99.90;;;;;;5114279;28;20274;-75
2022/05/03 04:42:14;;;;;;;10.00;6.32;;;4.10;99.90;;;;;;5113031;28;20475;-74
2022/05/03 04:44:40;;;;;;;10.43;5.78;;;4.20;99.90;;;;;;5114226;28;20048;-75
2022/05/03 04:47:06;;;;;;;14.73;6.10;;;4.20;99.90;;;;;;5114196;28;20130;-75
2022/05/03 04:49:31;;;;;;;10.40;6.55;;;4.30;99.90;;;;;;5114429;28;20474;-75
2022/05/03 04:51:57;;;;;;;11.32;6.30;;;4.30;99.90;;;;;;5114076;28;20075;-75
2022/05/03 04:54:23;;;;;;;10.23;6.53;;;4.30;99.90;;;;;;5114216;28;20075;-75
2022/05/03 04:56:58;;;;;;;10.97;7.03;;;4.40;99.90;;;;;;5114124;28;20085;-76
2022/05/03 04:59:23;;;;;;;11.68;6.30;;;4.40;99.90;;;;;;5114064;28;20081;-75
2022/05/03 05:01:49;;;;;;;8.88;5.95;;;4.50;99.90;;;;;;5113964;28;20084;-75
2022/05/03 05:04:15;;;;;;;10.38;6.57;;;4.60;99.90;;;;;;5113990;28;20048;-75
2022/05/03 05:06:41;;;;;;;12.48;7.07;;;4.60;99.90;;;;;;5113955;28;20054;-77
2022/05/03 05:09:06;;;;;;;9.88;6.35;;;4.70;99.90;;;;;;5117265;28;20036;-75
2022/05/03 05:11:32;;;;;;;10.65;6.72;;;4.70;99.90;;;;;;5118064;28;20040;-73
2022/05/03 05:13:57;;;;;;;10.60;7.35;;;4.80;99.90;;;;;;5118602;28;20067;-75
2022/05/03 05:16:23;;;;;;;12.48;7.35;;;4.80;99.90;;;;;;5118032;27;20055;-74
2022/05/03 05:18:49;;;;;;;11.50;6.93;;;4.90;99.90;;;;;;5118228;28;20039;-76
2022/05/03 05:21:15;;;;;;;10.57;7.00;;;5.00;99.90;;;;;;5118108;28;20070;-74
2022/05/03 05:23:40;;;;;;;11.65;7.72;;;5.10;99.90;;;;;;5117838;28;20772;-75
2022/05/03 05:26:06;;;;;;;12.57;7.38;;;5.20;99.90;;;;;;5117824;28;20122;-76
2022/05/03 05:28:31;;;;;;;13.00;7.63;;;5.40;99.90;;;;;;5117615;28;20048;-75
2022/05/03 05:30:57;;;;;;;14.40;7.85;;;5.50;99.90;;;;;;5117670;28;20141;-76
2022/05/03 05:33:23;;;;;;;13.57;7.70;;;5.60;99.90;;;;;;5117472;28;20487;-74
2022/05/03 05:35:49;;;;;;;13.27;8.07;;;5.70;99.90;;;;;;5117624;28;20046;-76
2022/05/03 05:38:17;;;;;;;14.85;8.77;;;5.80;99.90;;;;;;5117528;28;20093;-75
2022/05/03 05:40:44;;;;;;;15.85;9.30;;;5.90;99.90;;;;;;5117577;28;20122;-74
2022/05/03 05:43:09;;;;;;;17.58;8.32;;;6.00;99.90;;;;;;5117434;27;20059;-73
2022/05/03 05:45:35;;;;;;;15.05;9.10;;;6.10;99.90;;;;;;5117496;28;20483;-74
2022/05/03 05:48:00;;;;;;;13.25;8.82;;;6.20;99.90;;;;;;5117433;28;20040;-72
2022/05/03 05:50:27;;;;;;;16.77;9.85;;;6.30;99.90;;;;;;5117264;28;20084;-75
2022/05/03 05:55:37;;;;;;;17.65;10.48;;;6.50;99.90;;;;;;5117195;28;20130;-74
2022/05/03 05:58:03;;;;;;;17.38;10.85;;;6.60;99.90;;;;;;5117216;28;20079;-74
2022/05/03 06:00:29;;;;;;;16.92;11.65;;;6.80;99.90;;;;;;5117534;28;20395;-73
2022/05/03 06:02:55;;;;;;;20.30;11.90;;;6.90;99.90;;;;;;5117126;28;20043;-74
2022/05/03 06:05:20;;;;;;;22.17;13.85;;;7.10;99.90;;;;;;5117053;28;20047;-75
2022/05/03 06:07:46;;;;;;;23.98;15.60;;;7.30;99.90;;;;;;5116819;28;20394;-72
2022/05/03 06:10:12;;;;;;;26.63;16.58;;;7.50;99.90;;;;;;5116801;28;20044;-73
2022/05/03 06:12:37;;;;;;;27.38;15.63;;;7.70;99.90;;;;;;5117104;28;20040;-74
2022/05/03 06:15:03;;;;;;;28.23;18.08;;;8.00;99.90;;;;;;5117271;28;20052;-76
2022/05/03 06:17:29;;;;;;;30.90;17.48;;;8.20;99.90;;;;;;5116715;28;20051;-75
2022/05/03 06:19:55;;;;;;;32.10;18.17;;;8.50;99.90;;;;;;5116941;28;20032;-74
2022/05/03 06:22:21;;;;;;;29.95;17.60;;;8.80;99.90;;;;;;5116873;28;20051;-74
2022/05/03 06:24:47;;;;;;;28.85;17.92;;;9.00;99.90;;;;;;5116399;28;20466;-77
2022/05/03 06:27:14;;;;;;;29.27;18.58;;;9.30;99.90;;;;;;5117112;28;20043;-77
2022/05/03 06:29:39;;;;;;;30.83;18.50;;;9.50;99.90;;;;;;5116468;28;20039;-76
2022/05/03 06:32:05;;;;;;;28.73;18.13;;;9.60;99.90;;;;;;5116318;28;20092;-75
2022/05/03 06:34:31;;;;;;;30.92;19.25;;;9.70;99.90;;;;;;5116495;28;20048;-75
2022/05/03 06:36:58;;;;;;;30.17;20.38;;;9.80;99.90;;;;;;5116378;28;20044;-73
2022/05/03 06:39:24;;;;;;;30.92;20.73;;;9.90;99.90;;;;;;5116319;27;20118;-74
2022/05/03 06:41:49;;;;;;;32.50;20.48;;;10.00;99.90;;;;;;5116803;28;20086;-74
2022/05/03 06:44:16;;;;;;;34.25;20.55;;;10.20;99.90;;;;;;5116952;28;20468;-72
2022/05/03 06:46:42;;;;;;;32.42;20.05;;;10.30;99.90;;;;;;5116308;28;20047;-73
2022/05/03 06:49:10;;;;;;;35.00;21.60;;;10.40;99.90;;;;;;5116129;28;20395;-73
2022/05/03 06:51:35;;;;;;;36.90;22.83;;;10.50;99.90;;;;;;5116204;28;20048;-75
2022/05/03 06:54:02;;;;;;;35.53;21.67;;;10.60;99.90;;;;;;5116079;28;20490;-75
2022/05/03 06:56:27;;;;;;;36.33;22.00;;;10.60;99.90;;;;;;5116090;28;20055;-77
2022/05/03 06:58:53;;;;;;;40.88;21.85;;;10.70;99.90;;;;;;5116075;28;20085;-75
2022/05/03 07:01:18;;;;;;;35.63;21.73;;;10.80;99.90;;;;;;5116013;28;20049;-76
2022/05/03 07:03:44;;;;;;;29.65;18.27;;;10.80;99.90;;;;;;5116188;28;20500;-74
2022/05/03 07:06:09;;;;;;;33.90;20.38;;;10.80;99.90;;;;;;5131948;27;20394;-76
2022/05/03 07:08:36;;;;;;;32.75;19.58;;;10.80;99.90;;;;;;5115631;28;20078;-76
2022/05/03 07:11:02;;;;;;;39.67;21.05;;;10.90;99.90;;;;;;5115853;28;20052;-74
2022/05/03 07:13:28;;;;;;;30.77;19.00;;;11.00;99.90;;;;;;5114563;28;20055;-75
2022/05/03 07:15:55;;;;;;;34.38;19.35;;;11.10;99.90;;;;;;5115696;28;20289;-75
2022/05/03 07:23:50;;;;;;;32.72;17.63;;;11.30;99.90;;;;;;5115524;28;20047;-73
2022/05/03 07:26:16;;;;;;;31.58;16.70;;;11.40;99.90;;;;;;5115227;28;20475;-74
2022/05/03 07:28:42;;;;;;;34.78;17.75;;;11.50;99.90;;;;;;5115325;28;20089;-74
2022/05/03 07:31:11;;;;;;;29.15;16.60;;;11.60;99.90;;;;;;5114544;28;20089;-74
2022/05/03 07:33:37;;;;;;;29.52;16.48;;;11.60;99.90;;;;;;5115452;28;20073;-74
2022/05/03 07:36:03;;;;;;;32.55;16.98;;;11.70;99.90;;;;;;5115145;28;20468;-76
2022/05/03 07:38:29;;;;;;;30.75;16.98;;;11.80;99.90;;;;;;5115146;28;20470;-74
2022/05/03 07:40:58;;;;;;;29.15;15.35;;;12.00;99.90;;;;;;5115213;28;20127;-76
2022/05/03 07:43:25;;;;;;;30.52;15.82;;;12.10;99.90;;;;;;5115319;28;20126;-74
2022/05/03 07:45:50;;;;;;;30.30;16.05;;;12.20;99.90;;;;;;5115228;28;20043;-76
2022/05/03 07:48:16;;;;;;;28.65;16.25;;;12.30;99.90;;;;;;5115076;28;20440;-77
2022/05/03 07:50:43;;;;;;;27.25;15.98;;;12.40;99.90;;;;;;5114996;28;20574;-77
2022/05/03 07:53:08;;;;;;;32.17;16.77;;;12.50;99.90;;;;;;5114987;28;20051;-76
2022/05/03 07:55:34;;;;;;;31.50;17.60;;;12.50;99.90;;;;;;5114986;28;20040;-75
2022/05/03 07:57:59;;;;;;;37.53;19.35;;;12.30;99.90;;;;;;5114824;28;20047;-75
2022/05/03 08:00:26;;;;;;;42.03;20.08;;;12.20;99.90;;;;;;5114603;28;20036;-75
2022/05/03 08:02:52;;;;;;;40.20;20.75;;;12.20;99.90;;;;;;5114835;28;20047;-74
2022/05/03 08:05:17;;;;;;;39.45;19.52;;;12.20;99.90;;;;;;5114668;28;20582;-75
2022/05/03 08:07:44;;;;;;;38.65;20.88;;;12.00;99.90;;;;;;5114679;28;20043;-76
2022/05/03 08:10:10;;;;;;;40.72;21.48;;;12.00;99.90;;;;;;5114546;28;20123;-75
2022/05/03 08:12:36;;;;;;;39.27;19.37;;;11.80;99.90;;;;;;5114625;28;20039;-73
2022/05/03 08:15:04;;;;;;;39.45;21.35;;;11.80;99.90;;;;;;5114798;28;20055;-74
2022/05/03 08:17:30;;;;;;;40.95;22.30;;;11.80;99.90;;;;;;5114460;28;20052;-75
2022/05/03 08:19:56;;;;;;;39.67;20.60;;;11.70;99.90;;;;;;5114352;28;20046;-75
2022/05/03 08:22:22;;;;;;;40.95;21.35;;;11.60;99.90;;;;;;5114523;28;20422;-77
2022/05/03 08:24:48;;;;;;;53.38;24.23;;;11.60;99.90;;;;;;5114372;28;20040;-77
2022/05/03 08:27:13;;;;;;;49.78;24.08;;;11.50;99.90;;;;;;5114336;28;20081;-77
2022/05/03 08:29:39;;;;;;;53.42;23.50;;;11.50;99.90;;;;;;5114200;28;20066;-74
2022/05/03 08:32:05;;;;;;;43.55;22.05;;;11.50;99.90;;;;;;5114541;28;20360;-77
2022/05/03 08:34:31;;;;;;;46.95;23.15;;;11.40;99.90;;;;;;5114174;28;20043;-74
2022/05/03 08:42:27;;;;;;;46.15;22.85;;;11.20;99.90;;;;;;5113331;28;20047;-77
2022/05/03 08:44:53;;;;;;;;;;;11.20;99.90;;;;;;5114272;28;20467;-75
2022/05/03 08:47:19;;;;;;;36.80;20.27;;;11.20;99.90;;;;;;5114174;28;19972;-75
2022/05/03 08:50:12;;;;;;;42.08;19.25;;;11.10;99.90;;;;;;5114035;28;20039;-74
2022/05/03 08:52:50;;;;;;;42.42;20.40;;;11.10;99.90;;;;;;5114282;28;20130;-74
2022/05/03 08:55:16;;;;;;;32.70;18.08;;;11.20;99.90;;;;;;5114105;28;20047;-75
2022/05/03 08:57:43;;;;;;;33.17;17.27;;;11.30;99.90;;;;;;5114485;28;20044;-74
2022/05/03 09:00:09;;;;;;;30.42;16.48;;;11.30;99.90;;;;;;5114125;28;20276;-74
2022/05/03 09:02:40;;;;;;;;;;;11.30;99.90;;;;;;5114440;28;20043;-75
2022/05/03 09:05:06;;;;;;;26.35;15.82;;;11.30;99.90;;;;;;5112808;28;20026;-73
2022/05/03 09:07:34;;;;;;;26.53;15.53;;;11.30;99.90;;;;;;5111067;28;20437;-75
2022/05/03 09:10:15;;;;;;;27.40;15.23;;;11.30;99.90;;;;;;5113161;28;20048;-76
2022/05/03 09:12:41;;;;;;;22.98;15.45;;;11.20;99.90;;;;;;5113500;28;20127;-74
2022/05/03 09:15:07;;;;;;;25.17;14.15;;;11.20;99.90;;;;;;5113792;28;20086;-73
2022/05/03 09:17:45;;;;;;;25.48;13.48;;;11.20;99.90;;;;;;5113510;28;20047;-74
2022/05/03 09:25:53;;;;;;;19.83;9.23;;;11.20;99.90;;;;;;5113472;28;20047;-77
2022/05/03 09:28:21;;;;;;;13.45;8.18;;;11.30;99.90;;;;;;5113534;28;20048;-73
2022/05/03 09:30:51;;;;;;;14.13;6.78;;;11.20;99.90;;;;;;5113198;28;20050;-75
2022/05/03 09:33:22;;;;;;;18.38;6.68;;;11.20;99.90;;;;;;5113552;28;20070;-73
2022/05/03 09:35:49;;;;;;;12.73;5.75;;;11.20;99.90;;;;;;5113443;28;20043;-75
2022/05/03 09:38:15;;;;;;;11.88;5.80;;;11.20;99.90;;;;;;5113553;28;20455;-75
2022/05/03 09:40:46;;;;;;;14.25;5.40;;;11.20;99.90;;;;;;5112996;28;20079;-75
2022/05/03 09:43:13;;;;;;;11.45;5.45;;;11.30;99.90;;;;;;5113642;28;20063;-74
2022/05/03 09:45:39;;;;;;;14.07;5.65;;;11.30;99.90;;;;;;5113208;28;20376;-73
2022/05/03 09:48:05;;;;;;;12.37;5.80;;;11.40;99.90;;;;;;5113451;28;20043;-74
2022/05/03 09:50:45;;;;;;;11.23;5.50;;;11.50;99.90;;;;;;5113388;28;20039;-73
2022/05/03 09:53:28;;;;;;;10.68;4.80;;;11.60;99.90;;;;;;5112545;28;20035;-73
2022/05/03 09:55:54;;;;;;;13.35;5.55;;;11.70;99.90;;;;;;5116662;28;20438;-74
2022/05/03 09:58:20;;;;;;;11.77;5.45;;;11.80;99.90;;;;;;5116689;28;20066;-76
2022/05/03 10:00:47;;;;;;;18.80;5.65;;;11.80;99.90;;;;;;5117205;28;20047;-82
2022/05/03 10:03:13;;;;;;;;;;;11.90;99.90;;;;;;5117099;28;20399;-77
2022/05/03 10:05:40;;;;;;;11.55;5.50;;;11.90;99.90;;;;;;5116513;28;19919;-77
2022/05/03 10:08:10;;;;;;;10.93;6.03;;;11.90;99.90;;;;;;5116423;28;20044;-77
2022/05/03 10:10:39;;;;;;;13.02;5.50;;;12.00;99.90;;;;;;5116692;28;20508;-77
2022/05/03 10:13:05;;;;;;;15.40;5.75;;;12.00;99.90;;;;;;5116674;28;20048;-77
2022/05/03 10:21:14;;;;;;;11.48;5.32;;;12.20;99.90;;;;;;5116212;28;20124;-76
2022/05/03 10:23:39;;;;;;;13.55;5.57;;;12.30;99.90;;;;;;5116422;27;20069;-76
2022/05/03 10:26:09;;;;;;;16.02;5.63;;;12.30;99.90;;;;;;5116295;28;20504;-76
2022/05/03 10:29:09;;;;;;;15.32;5.85;;;12.30;99.90;;;;;;5116402;28;20050;-76
2022/05/03 10:31:59;;;;;;;14.80;6.30;;;12.30;99.90;;;;;;5116152;28;20043;-75
2022/05/03 10:34:53;;;;;;;11.35;5.78;;;12.30;99.90;;;;;;5116393;27;20047;-76
2022/05/03 10:37:25;;;;;;;20.23;6.45;;;12.20;99.90;;;;;;5116121;28;20040;-76
2022/05/03 10:39:59;;;;;;;12.32;5.53;;;12.20;99.90;;;;;;5116104;28;20043;-76
2022/05/03 10:42:29;;;;;;;16.25;5.30;;;12.10;99.90;;;;;;5116225;28;20479;-77
2022/05/03 10:45:03;;;;;;;18.83;6.30;;;12.10;99.90;;;;;;5116196;28;20048;-76
2022/05/03 10:47:47;;;;;;;20.83;6.50;;;12.10;99.90;;;;;;5116487;28;20131;-76
2022/05/03 10:50:13;;;;;;;16.67;5.75;;;12.20;99.90;;;;;;5115920;28;20118;-76
2022/05/03 10:52:54;;;;;;;13.82;5.35;;;12.20;99.90;;;;;;5115512;28;20130;-76
2022/05/03 10:55:20;;;;;;;24.48;5.63;;;12.30;99.90;;;;;;5115884;28;20044;-76
2022/05/03 10:58:19;;;;;;;16.52;5.70;;;12.40;99.90;;;;;;5115460;28;20047;-79
2022/05/03 11:01:03;;;;;;;;;;;12.40;99.90;;;;;;5100953;28;20402;-79
2022/05/03 11:03:39;;;;;;;20.80;5.88;;;12.50;99.90;;;;;;5115762;28;19919;-78
2022/05/03 11:06:23;;;;;;;17.42;4.90;;;12.60;99.90;;;;;;5114639;28;20036;-79
2022/05/03 11:09:02;;;;;;;16.83;4.80;;;12.80;99.90;;;;;;5115416;28;20039;-77
2022/05/03 11:11:41;;;;;;;14.90;4.65;;;13.00;99.90;;;;;;5115572;28;20048;-76
2022/05/03 11:14:19;;;;;;;13.07;5.03;;;13.20;99.90;;;;;;5115823;28;20059;-77
2022/05/03 11:17:04;;;;;;;18.95;5.68;;;13.50;99.90;;;;;;5114715;28;20055;-77
2022/05/03 11:19:31;;;;;;;18.00;4.50;;;13.20;99.90;;;;;;5115599;28;20043;-76
2022/05/03 11:21:58;;;;;;;;;;;13.10;99.90;;;;;;5115607;28;20051;-76
2022/05/03 11:24:29;;;;;;;16.80;5.22;;;13.10;99.90;;;;;;5114448;28;20301;-77
2022/05/03 11:27:00;;;;;;;20.73;5.20;;;13.10;99.90;;;;;;5115547;28;20467;-77
2022/05/03 11:29:32;;;;;;;13.98;4.30;;;13.00;99.90;;;;;;5115128;28;20048;-75
2022/05/03 11:32:01;;;;;;;11.35;4.60;;;13.00;99.90;;;;;;5115261;28;20372;-78
2022/05/03 11:34:27;;;;;;;13.27;4.70;;;13.00;99.90;;;;;;5112975;28;20083;-79
2022/05/03 11:36:53;;;;;;;14.40;4.73;;;13.00;99.90;;;;;;5113832;27;20141;-77
2022/05/03 11:39:20;;;;;;;15.77;5.75;;;13.10;99.90;;;;;;5113156;28;20039;-76
2022/05/03 11:41:46;;;;;;;13.38;4.25;;;13.20;99.90;;;;;;5113834;28;20075;-76
2022/05/03 11:44:13;;;;;;;10.43;4.70;;;13.20;99.90;;;;;;5114963;28;20050;-76
2022/05/03 11:46:40;;;;;;;13.15;4.22;;;13.20;99.90;;;;;;5114814;28;20042;-76
2022/05/03 11:49:08;;;;;;;8.35;4.10;;;13.30;99.90;;;;;;5114405;28;20047;-76
2022/05/03 11:57:12;;;;;;;11.88;3.97;;;13.60;99.90;;;;;;5114390;28;20510;-76
2022/05/03 11:59:39;;;;;;;7.97;3.50;;;13.70;99.90;;;;;;5114702;28;20043;-76
2022/05/03 12:02:12;;;;;;;;;;;13.60;99.90;;;;;;5115329;28;20083;-76
2022/05/03 12:04:37;;;;;;;10.95;3.67;;;13.60;99.90;;;;;;5114368;28;19920;-76
2022/05/03 12:07:03;;;;;;;7.97;3.70;;;13.70;99.90;;;;;;5114785;28;20093;-75
2022/05/03 12:09:35;;;;;;;13.63;3.60;;;13.70;99.90;;;;;;5114573;28;20078;-76
2022/05/03 12:14:45;;;;;;;12.02;3.55;;;13.80;99.90;;;;;;5114732;28;20051;-75
2022/05/03 12:17:11;;;;;;;10.03;3.37;;;13.80;99.90;;;;;;5114281;28;20058;-74
2022/05/03 12:19:38;;;;;;;9.00;3.05;;;13.90;99.90;;;;;;5114261;28;20036;-74
2022/05/03 12:22:07;;;;;;;;;;;13.80;99.90;;;;;;5114785;28;20046;-79
2022/05/03 12:24:34;;;;;;;10.15;2.97;;;13.80;99.90;;;;;;5114222;28;19919;-77
2022/05/03 12:27:13;;;;;;;8.85;3.30;;;13.80;99.90;;;;;;5114410;28;20487;-78
2022/05/03 12:29:46;;;;;;;8.30;3.00;;;13.90;99.90;;;;;;5114115;28;20124;-78
2022/05/03 12:32:17;;;;;;;9.10;3.50;;;13.90;99.90;;;;;;5113033;28;20096;-80
2022/05/03 12:35:01;;;;;;;7.88;2.92;;;13.80;99.90;;;;;;5114183;28;20504;-81
2022/05/03 12:37:27;;;;;;;8.23;3.13;;;13.80;99.90;;;;;;5114157;28;20056;-78
2022/05/03 12:39:59;;;;;;;10.02;3.17;;;13.80;99.90;;;;;;5130402;27;20513;-78
2022/05/03 12:42:25;;;;;;;7.97;2.78;;;13.90;99.90;;;;;;5114143;28;20050;-78
2022/05/03 12:44:54;;;;;;;12.65;3.55;;;14.00;99.90;;;;;;5114091;28;20114;-80
2022/05/03 12:47:21;;;;;;;11.65;3.08;;;14.10;99.90;;;;;;5113771;28;20402;-79
2022/05/03 12:49:47;;;;;;;7.95;2.72;;;14.20;99.90;;;;;;5113654;28;20039;-75
2022/05/03 12:52:13;;;;;;;5.73;2.13;;;14.10;99.90;;;;;;5114022;28;20403;-76
2022/05/03 12:54:44;;;;;;;8.88;2.70;;;14.10;99.90;;;;;;5113944;28;20043;-76
2022/05/03 12:59:55;;;;;;;8.18;3.00;;;14.10;99.90;;;;;;5113690;28;20048;-78
2022/05/03 13:02:24;;;;;;;;;;;14.20;99.90;;;;;;5114160;28;20130;-78
2022/05/03 13:04:50;;;;;;;9.73;2.80;;;14.20;99.90;;;;;;5113482;28;19945;-76
2022/05/03 13:07:16;;;;;;;8.57;2.67;;;14.40;99.90;;;;;;5112236;28;20031;-74
2022/05/03 13:09:41;;;;;;;4.38;2.30;;;14.40;99.90;;;;;;5110835;28;20405;-75
2022/05/03 13:12:08;;;;;;;10.90;3.03;;;14.50;99.90;;;;;;5112309;28;20040;-74
2022/05/03 13:14:34;;;;;;;6.82;2.65;;;14.60;99.90;;;;;;5110166;28;20131;-73
2022/05/03 13:16:59;;;;;;;6.88;2.70;;;14.70;99.90;;;;;;5110717;28;20143;-73
2022/05/03 13:19:28;;;;;;;5.50;2.77;;;14.80;99.90;;;;;;5111164;28;20048;-75
2022/05/03 13:21:56;;;;;;;13.77;2.88;;;14.70;99.90;;;;;;5111617;28;20097;-77
2022/05/03 13:24:22;;;;;;;8.93;2.28;;;14.70;99.90;;;;;;5112292;28;20407;-73
2022/05/03 13:26:48;;;;;;;10.63;3.13;;;14.70;99.90;;;;;;5113344;28;20104;-74
2022/05/03 13:29:17;;;;;;;8.60;2.70;;;14.80;99.90;;;;;;5115005;28;20040;-73
2022/05/03 13:31:45;;;;;;;10.40;2.55;;;14.80;99.90;;;;;;5117359;28;20051;-74
2022/05/03 13:34:12;;;;;;;9.15;2.80;;;14.80;99.90;;;;;;5117359;28;20062;-76
2022/05/03 13:42:11;;;;;;;11.27;2.88;;;14.70;99.90;;;;;;5117410;28;20445;-74
2022/05/03 13:44:38;;;;;;;7.63;2.35;;;14.80;99.90;;;;;;5117277;28;20039;-74
2022/05/03 13:47:05;;;;;;;6.47;2.13;;;14.90;99.90;;;;;;5117109;28;20048;-75
2022/05/03 13:49:31;;;;;;;5.30;2.38;;;15.00;99.90;;;;;;5117214;28;20043;-74
2022/05/03 13:51:58;;;;;;;8.82;2.55;;;15.10;99.90;;;;;;5117226;28;20490;-75